Time;durP1;ratioP1;P1;durP2;ratioP2;P2;SDS_P1;SDS_P2;PMS_P1;PMS_P2;Temp;Humidity;BMP_temperature;BMP_pressure;BME280_temperature;BME280_humidity;BME280_pressure;Samples;Min_cycle;Max_cycle;Signal;HPM_P1;HPM_P2
2022/07/04 00:00:13;;;;;;;1.42;0.93;;;19.10;90.10;;;19.47;65.33;101348.16;5185526;28;20073;-73
2022/07/04 00:02:46;;;;;;;1.98;0.90;;;19.00;90.40;;;19.41;65.48;101345.44;5185346;28;20057;-74
2022/07/04 00:05:20;;;;;;;1.58;0.90;;;19.00;90.90;;;19.33;65.97;101344.53;5185168;28;20046;-73
2022/07/04 00:07:52;;;;;;;0.90;0.82;;;18.90;91.20;;;19.27;66.28;101345.34;5185306;28;20125;-73
2022/07/04 00:10:24;;;;;;;1.77;1.02;;;18.80;91.70;;;19.22;66.52;101342.66;5185501;28;20151;-73
2022/07/04 00:12:57;;;;;;;1.17;0.90;;;18.80;92.10;;;19.17;66.92;101332.94;5198247;28;20049;-74
2022/07/04 00:15:30;;;;;;;0.95;0.95;;;18.70;92.60;;;19.10;66.74;101342.56;5197337;28;20056;-74
2022/07/04 00:18:02;;;;;;;1.75;0.82;;;18.70;92.80;;;19.06;67.00;101343.44;5205769;28;20046;-74
2022/07/04 00:20:34;;;;;;;1.83;0.90;;;18.60;93.20;;;19.00;67.32;101343.38;5204270;28;20053;-74
2022/07/04 00:23:06;;;;;;;2.10;1.00;;;18.60;93.60;;;18.95;67.55;101347.72;5205752;28;20048;-74
2022/07/04 00:25:38;;;;;;;1.75;1.10;;;18.50;94.00;;;18.89;67.84;101342.38;5205557;28;20048;-74
2022/07/04 00:28:12;;;;;;;1.95;0.90;;;18.50;94.40;;;18.84;68.12;101350.25;5205589;28;20042;-75
2022/07/04 00:30:44;;;;;;;1.27;1.00;;;18.40;94.90;;;18.79;68.43;101345.81;5200640;28;20137;-74
2022/07/04 00:33:16;;;;;;;1.73;1.02;;;18.40;95.30;;;18.74;68.53;101344.88;5201011;28;20075;-73
2022/07/04 00:35:48;;;;;;;0.93;0.93;;;18.30;95.60;;;18.70;68.77;101343.94;5205201;28;20041;-73
2022/07/04 00:38:21;;;;;;;1.10;1.00;;;18.30;96.00;;;18.64;69.07;101339.44;5204316;28;20506;-73
2022/07/04 00:40:53;;;;;;;0.95;0.80;;;18.20;96.40;;;18.61;69.06;101331.50;5205582;28;20049;-74
2022/07/04 00:43:28;;;;;;;1.88;0.85;;;18.20;96.70;;;18.54;69.44;101324.41;5205364;28;20060;-74
2022/07/04 00:46:05;;;;;;;1.15;1.00;;;18.10;97.40;;;18.50;69.62;101329.63;5207647;28;20042;-73
2022/07/04 00:48:37;;;;;;;1.95;0.90;;;18.10;97.50;;;18.45;69.97;101324.28;5208528;28;20046;-73
2022/07/04 00:51:09;;;;;;;1.75;1.02;;;18.00;97.80;;;18.41;69.87;101327.78;5209409;28;20049;-73
2022/07/04 00:53:42;;;;;;;1.60;1.00;;;18.00;98.00;;;18.36;69.95;101318.91;5209407;28;20474;-73
2022/07/04 00:56:14;;;;;;;1.85;1.00;;;17.90;98.20;;;18.30;70.24;101324.13;5209305;28;20041;-73
2022/07/04 00:58:48;;;;;;;1.95;1.17;;;17.90;98.40;;;18.25;70.22;101321.41;5201036;28;20041;-73
2022/07/04 01:01:21;;;;;;;1.95;1.10;;;17.90;98.70;;;18.20;70.57;101330.19;5192329;28;20129;-73
2022/07/04 01:03:53;;;;;;;1.15;1.02;;;17.80;98.90;;;18.15;70.60;101320.44;5188815;28;20462;-73
2022/07/04 01:06:25;;;;;;;2.50;1.10;;;17.80;99.10;;;18.11;70.97;101318.63;5197521;28;20133;-74
2022/07/04 01:08:58;;;;;;;1.00;0.90;;;17.70;99.40;;;18.07;71.24;101321.22;5208123;28;20045;-73
2022/07/04 01:11:30;;;;;;;1.27;1.17;;;17.70;99.60;;;18.04;71.37;101326.44;5208929;28;20049;-74
2022/07/04 01:14:05;;;;;;;1.30;1.10;;;17.60;99.80;;;18.00;71.59;101327.28;5209086;28;20051;-73
2022/07/04 01:16:37;;;;;;;2.65;1.02;;;17.60;99.90;;;17.97;71.94;101319.31;5208678;28;20044;-74
2022/07/04 01:19:10;;;;;;;1.23;1.10;;;17.60;99.90;;;17.92;71.98;101319.25;5208984;28;20440;-74
2022/07/04 01:21:43;;;;;;;1.10;1.00;;;17.60;99.90;;;17.89;72.23;101320.09;5208551;28;20128;-75
2022/07/04 01:24:15;;;;;;;1.20;1.10;;;17.50;99.90;;;17.86;72.34;101327.06;5208951;28;20046;-74
2022/07/04 01:26:47;;;;;;;1.55;0.93;;;17.50;99.90;;;17.82;72.38;101326.16;5208607;28;20048;-74
2022/07/04 01:29:21;;;;;;;1.95;1.15;;;17.40;99.90;;;17.81;72.65;101326.16;5208774;28;20045;-74
2022/07/04 01:31:53;;;;;;;1.83;0.90;;;17.40;99.90;;;17.84;72.58;101337.63;5208853;28;20391;-73
2022/07/04 01:34:25;;;;;;;1.73;0.95;;;17.40;99.90;;;17.85;72.44;101335.88;5208418;28;20099;-73
2022/07/04 01:36:59;;;;;;;2.00;0.93;;;17.40;99.90;;;17.86;71.97;101332.34;5208352;28;20092;-75
2022/07/04 01:39:31;;;;;;;1.42;1.30;;;17.40;99.90;;;17.85;72.14;101341.13;5223844;28;20041;-73
2022/07/04 01:42:05;;;;;;;1.98;1.00;;;17.40;99.90;;;17.84;71.95;101339.38;5208347;28;20401;-73
2022/07/04 01:44:37;;;;;;;1.30;1.20;;;17.40;99.90;;;17.80;72.11;101342.81;5208782;28;20047;-73
2022/07/04 01:47:09;;;;;;;1.50;0.90;;;17.40;99.90;;;17.75;72.26;101340.13;5206942;28;20327;-74
2022/07/04 01:49:42;;;;;;;1.08;1.00;;;17.30;99.90;;;17.68;72.57;101342.63;5208598;28;20037;-73
2022/07/04 01:52:15;;;;;;;2.83;1.15;;;17.30;99.90;;;17.62;72.79;101339.03;5208194;28;20053;-73
2022/07/04 01:54:47;;;;;;;1.60;0.90;;;17.20;99.90;;;17.57;72.98;101340.72;5208152;28;20044;-74
2022/07/04 01:57:20;;;;;;;0.80;0.80;;;17.20;99.90;;;17.52;73.04;101347.66;5207749;28;20041;-73
2022/07/04 02:02:42;;;;;;;1.10;0.95;;;17.10;99.90;;;17.45;73.38;101351.06;5208207;28;20049;-73
2022/07/04 02:05:14;;;;;;;1.70;1.10;;;17.10;99.90;;;17.46;73.24;101351.94;5208010;28;20069;-74
2022/07/04 02:07:48;;;;;;;1.15;0.98;;;17.10;99.90;;;17.44;73.12;101356.31;5207871;28;20129;-74
2022/07/04 02:10:21;;;;;;;1.88;1.10;;;17.00;99.90;;;17.42;73.18;101356.31;5207975;28;20562;-74
2022/07/04 02:13:01;;;;;;;1.40;1.00;;;17.00;99.90;;;17.43;73.17;101363.34;5207795;28;20037;-73
2022/07/04 02:15:35;;;;;;;1.70;1.15;;;17.00;99.90;;;17.44;73.09;101369.50;5207779;28;20041;-74
2022/07/04 02:18:10;;;;;;;2.35;1.08;;;17.00;99.90;;;17.42;73.18;101365.97;5207858;28;20494;-73
2022/07/04 02:20:42;;;;;;;;;;;17.00;99.90;;;17.40;72.92;101363.28;5208156;28;20056;-74
2022/07/04 02:23:15;;;;;;;1.13;1.00;;;17.00;99.90;;;17.36;72.83;101372.91;5207546;28;19921;-74
2022/07/04 02:25:47;;;;;;;1.55;1.10;;;17.00;99.90;;;17.35;72.81;101370.25;5207705;28;20136;-74
2022/07/04 02:28:19;;;;;;;1.10;1.02;;;17.00;99.90;;;17.30;72.85;101383.34;5207638;28;20065;-74
2022/07/04 02:30:51;;;;;;;1.35;1.10;;;16.90;99.90;;;17.24;72.89;101379.72;5207439;28;20056;-75
2022/07/04 02:33:24;;;;;;;1.98;1.10;;;16.90;99.90;;;17.20;73.13;101386.66;5207532;28;20060;-74
2022/07/04 02:35:56;;;;;;;2.08;1.00;;;16.80;99.90;;;17.13;73.46;101383.91;5207261;28;20126;-74
2022/07/04 02:38:29;;;;;;;1.63;1.05;;;16.80;99.90;;;17.07;73.71;101390.84;5207360;28;20046;-74
2022/07/04 02:41:01;;;;;;;1.40;1.30;;;16.70;99.90;;;17.05;73.93;101392.56;5207332;28;20052;-73
2022/07/04 02:43:34;;;;;;;1.55;1.10;;;16.70;99.90;;;17.04;73.89;101390.81;5207461;28;20124;-72
2022/07/04 02:46:06;;;;;;;1.40;1.10;;;16.70;99.90;;;16.99;73.97;101394.22;5206918;28;20067;-73
2022/07/04 02:48:38;;;;;;;1.88;1.10;;;16.60;99.90;;;16.92;74.25;101385.31;5207243;28;20068;-73
2022/07/04 02:51:10;;;;;;;1.10;1.00;;;16.50;99.90;;;16.83;74.61;101393.06;5207265;28;20045;-74
2022/07/04 02:53:44;;;;;;;1.17;1.05;;;16.50;99.90;;;16.79;74.83;101399.09;5207085;28;20122;-74
2022/07/04 02:56:16;;;;;;;2.05;1.02;;;16.40;99.90;;;16.79;74.61;101396.47;5198427;28;20092;-73
2022/07/04 02:58:48;;;;;;;2.95;1.00;;;16.40;99.90;;;16.79;74.53;101399.09;5186847;28;20053;-73
2022/07/04 03:01:20;;;;;;;2.17;1.30;;;16.40;99.90;;;16.76;74.59;101404.31;5186473;28;20046;-73
2022/07/04 03:03:53;;;;;;;1.27;0.95;;;16.40;99.90;;;16.75;74.26;101406.03;5186554;28;20073;-73
2022/07/04 03:06:25;;;;;;;1.10;1.00;;;16.40;99.90;;;16.76;74.26;101409.59;5185109;28;20510;-73
2022/07/04 03:08:58;;;;;;;1.35;0.95;;;16.40;99.90;;;16.75;74.17;101413.06;5185564;28;20046;-73
2022/07/04 03:11:30;;;;;;;2.03;1.40;;;16.40;99.90;;;16.74;74.19;101413.91;5186325;28;20053;-74
2022/07/04 03:14:03;;;;;;;2.60;1.00;;;16.40;99.90;;;16.76;74.15;101420.13;5186415;28;20056;-73
2022/07/04 03:16:35;;;;;;;1.10;1.00;;;16.40;99.90;;;16.77;74.35;101422.78;5185942;28;20069;-74
2022/07/04 03:19:07;;;;;;;1.08;0.90;;;16.40;99.90;;;16.77;74.12;101428.03;5186150;28;20052;-73
2022/07/04 03:21:41;;;;;;;3.28;1.50;;;16.40;99.90;;;16.77;74.14;101427.16;5186318;28;20082;-73
2022/07/04 03:24:14;;;;;;;1.52;1.42;;;16.40;99.90;;;16.78;73.86;101429.81;5186155;28;20052;-74
2022/07/04 03:26:46;;;;;;;5.65;1.20;;;16.40;99.90;;;16.76;73.72;101433.28;5184595;28;20123;-73
2022/07/04 03:29:18;;;;;;;2.58;1.13;;;16.40;99.90;;;16.76;73.96;101433.28;5186037;28;20052;-73
2022/07/04 03:31:50;;;;;;;1.45;1.13;;;16.40;99.90;;;16.78;74.24;101444.72;5185891;28;20458;-73
2022/07/04 03:34:23;;;;;;;1.38;1.10;;;16.40;99.90;;;16.78;74.17;101440.34;5185871;28;20129;-73
2022/07/04 03:36:55;;;;;;;2.03;1.00;;;16.40;99.90;;;16.79;74.35;101441.22;5185538;28;20132;-74
2022/07/04 03:39:28;;;;;;;1.20;1.08;;;16.40;99.90;;;16.74;74.50;101445.50;5186004;28;20042;-74
2022/07/04 03:42:01;;;;;;;1.20;1.10;;;16.40;99.90;;;16.66;74.54;101450.59;5185772;28;20050;-74
2022/07/04 03:44:33;;;;;;;1.05;1.00;;;16.30;99.90;;;16.59;75.07;101442.53;5185621;28;20520;-74
2022/07/04 03:47:05;;;;;;;1.92;1.10;;;16.30;99.90;;;16.50;75.50;101438.88;5184355;28;20046;-74
2022/07/04 03:49:37;;;;;;;1.25;1.10;;;16.20;99.90;;;16.45;76.07;101453.66;5185700;28;20570;-73
2022/07/04 03:52:10;;;;;;;2.20;1.15;;;16.10;99.90;;;16.40;76.31;101447.41;5185600;28;20048;-74
2022/07/04 03:54:44;;;;;;;2.05;1.00;;;16.10;99.90;;;16.36;77.05;101450.81;5185532;28;20052;-74
2022/07/04 03:57:16;;;;;;;1.27;1.00;;;16.00;99.90;;;16.40;77.31;101452.69;5185547;28;20423;-74
2022/07/04 03:59:48;;;;;;;2.05;1.00;;;16.10;99.90;;;16.45;77.51;101453.66;5185546;28;20124;-74
2022/07/04 04:02:20;;;;;;;1.50;1.00;;;16.10;99.90;;;16.47;77.63;101457.22;5185537;28;20510;-74
2022/07/04 04:07:43;;;;;;;1.25;0.93;;;16.10;99.90;;;16.43;77.65;101452.75;5184138;28;20050;-73
2022/07/04 04:10:17;;;;;;;1.85;1.00;;;16.10;99.90;;;16.41;77.66;101451.81;5185688;28;20073;-73
2022/07/04 04:12:49;;;;;;;1.20;0.88;;;16.10;99.90;;;16.42;78.01;101450.97;5185257;28;20507;-74
2022/07/04 04:15:22;;;;;;;1.30;1.20;;;16.10;99.90;;;16.46;78.23;101450.19;5185120;28;20074;-73
2022/07/04 04:17:54;;;;;;;1.27;1.02;;;16.10;99.90;;;16.52;78.09;101445.03;5185235;28;20050;-74
2022/07/04 04:20:26;;;;;;;1.02;0.88;;;16.20;99.90;;;16.60;77.99;101446.94;5185113;28;20045;-74
2022/07/04 04:22:58;;;;;;;1.55;1.10;;;16.20;99.90;;;16.66;77.72;101441.81;5185168;28;20050;-75
2022/07/04 04:25:32;;;;;;;1.73;1.00;;;16.30;99.90;;;16.69;77.49;101445.41;5184994;28;20415;-75
2022/07/04 04:28:05;;;;;;;1.50;0.90;;;16.30;99.90;;;16.74;77.34;101442.88;5185129;28;20503;-73
2022/07/04 04:30:37;;;;;;;2.15;1.00;;;16.40;99.90;;;16.76;77.20;101442.06;5185299;28;20081;-74
2022/07/04 04:33:09;;;;;;;1.20;0.95;;;16.40;99.90;;;16.78;77.06;101439.47;5185136;28;20041;-74
2022/07/04 04:35:41;;;;;;;2.20;1.20;;;16.40;99.90;;;16.79;76.66;101442.13;5184766;28;20139;-75
2022/07/04 04:38:13;;;;;;;2.13;1.20;;;16.50;99.90;;;16.83;76.06;101443.06;5185148;28;20411;-73
2022/07/04 04:40:47;;;;;;;2.03;1.17;;;16.50;99.90;;;16.86;75.54;101442.22;5185017;28;20056;-72
2022/07/04 04:43:19;;;;;;;1.85;1.10;;;16.50;99.90;;;16.90;75.36;101449.34;5184954;28;20402;-73
2022/07/04 04:45:51;;;;;;;2.30;1.35;;;16.50;99.90;;;16.95;75.14;101459.13;5184962;28;20078;-73
2022/07/04 04:48:23;;;;;;;1.20;1.00;;;16.60;99.90;;;16.99;75.01;101458.28;5185086;28;20050;-73
2022/07/04 04:50:55;;;;;;;1.75;0.90;;;16.60;99.90;;;17.08;74.84;101461.13;5184987;28;20134;-73
2022/07/04 04:53:27;;;;;;;1.20;1.10;;;16.70;99.90;;;17.24;74.86;101458.75;5184976;28;20060;-73
2022/07/04 04:56:01;;;;;;;1.98;1.33;;;16.80;99.90;;;17.54;75.03;101464.56;5184899;28;20053;-73
2022/07/04 04:58:33;;;;;;;2.30;1.40;;;17.10;99.90;;;17.97;73.42;101461.75;5183621;28;20100;-74
2022/07/04 05:01:05;;;;;;;2.90;1.40;;;17.40;99.90;;;18.35;71.04;101462.31;5199962;28;20574;-74
2022/07/04 05:03:38;;;;;;;1.73;1.33;;;17.80;99.90;;;18.70;69.24;101463.66;5184743;28;20049;-73
2022/07/04 05:06:10;;;;;;;2.72;1.20;;;18.20;99.90;;;18.99;67.08;101463.13;5184775;28;20053;-74
2022/07/04 05:08:42;;;;;;;4.20;1.63;;;18.40;99.60;;;19.28;65.87;101460.78;5185033;28;20339;-75
2022/07/04 05:11:16;;;;;;;3.78;1.40;;;18.70;99.10;;;19.54;65.23;101461.00;5184831;28;20042;-75
2022/07/04 05:13:48;;;;;;;3.25;1.45;;;19.00;98.70;;;19.73;63.97;101459.44;5184934;28;20046;-73
2022/07/04 05:16:20;;;;;;;2.40;1.23;;;19.10;98.30;;;19.87;63.26;101455.13;5184789;28;20034;-73
2022/07/04 05:18:52;;;;;;;2.08;1.10;;;19.30;97.60;;;20.00;62.90;101456.09;5184794;28;20057;-73
2022/07/04 05:21:26;;;;;;;2.35;1.40;;;19.40;97.30;;;20.20;62.75;101457.13;5184701;28;20046;-73
2022/07/04 05:23:58;;;;;;;3.15;1.40;;;19.60;97.20;;;20.45;61.46;101457.28;5183493;28;20045;-74
2022/07/04 05:26:32;;;;;;;3.28;1.42;;;19.80;96.50;;;20.75;60.40;101465.38;5184579;28;20440;-74
2022/07/04 05:29:04;;;;;;;3.28;1.40;;;20.10;96.00;;;20.98;59.16;101465.41;5184645;28;20498;-74
2022/07/04 05:31:36;;;;;;;3.53;1.60;;;20.30;95.10;;;21.18;58.50;101472.53;5186122;28;20410;-75
2022/07/04 05:34:08;;;;;;;2.20;1.35;;;20.50;94.70;;;21.30;58.76;101459.34;5188483;28;20045;-74
2022/07/04 05:36:40;;;;;;;3.03;1.50;;;20.60;94.60;;;21.46;58.57;101465.56;5214290;23;20416;-81
2022/07/04 05:39:12;;;;;;;1.95;1.30;;;20.70;94.50;;;21.70;57.72;101465.53;5208202;28;20503;-81
2022/07/04 05:41:46;;;;;;;2.53;1.60;;;21.00;93.80;;;21.90;56.56;101463.75;5186026;28;20038;-81
2022/07/04 05:44:18;;;;;;;2.25;1.45;;;21.10;93.10;;;22.03;55.69;101463.72;5193662;28;20060;-80
2022/07/04 05:46:50;;;;;;;2.10;1.48;;;21.30;92.50;;;22.20;55.59;101461.97;5174340;28;20042;-81
2022/07/04 05:49:23;;;;;;;3.08;1.58;;;21.40;92.30;;;22.30;55.78;101466.38;5208031;28;20598;-81
2022/07/04 05:51:55;;;;;;;5.15;1.80;;;21.60;92.20;;;22.43;55.13;101465.47;5188313;28;20045;-82
2022/07/04 05:54:27;;;;;;;4.18;1.67;;;21.60;91.70;;;22.55;54.38;101460.97;5190546;28;20041;-81
2022/07/04 05:57:01;;;;;;;5.05;1.70;;;21.70;91.10;;;22.68;54.72;101463.56;5193094;28;20049;-81
2022/07/04 05:59:33;;;;;;;2.83;1.42;;;21.90;91.30;;;22.70;54.47;101467.13;5194635;28;20061;-82
2022/07/04 06:02:05;;;;;;;3.03;1.65;;;21.90;90.90;;;22.86;53.71;101469.69;5193413;28;20507;-82
2022/07/04 06:04:37;;;;;;;2.88;1.50;;;22.10;90.80;;;23.06;53.24;101473.16;5193054;28;20053;-82
2022/07/04 06:07:09;;;;;;;5.82;1.98;;;22.20;90.00;;;23.32;52.30;101469.44;5193376;28;20132;-83
2022/07/04 06:09:41;;;;;;;1.88;1.25;;;22.50;88.90;;;23.49;51.54;101475.53;5211830;28;20048;-83
2022/07/04 06:12:15;;;;;;;2.97;1.33;;;22.60;87.30;;;23.69;51.45;101475.41;5195634;28;20057;-84
2022/07/04 06:14:47;;;;;;;3.90;1.52;;;22.80;87.50;;;23.71;50.96;101481.59;5213195;28;20621;-83
2022/07/04 06:17:19;;;;;;;3.47;1.40;;;22.80;85.40;;;23.77;50.43;101478.88;5195819;28;20042;-83
2022/07/04 06:19:51;;;;;;;3.65;1.52;;;22.90;85.00;;;23.97;49.64;101474.25;5196208;28;20046;-83
2022/07/04 06:22:24;;;;;;;2.30;1.55;;;23.10;83.20;;;24.04;49.81;101475.94;5206049;28;20041;-82
2022/07/04 06:24:56;;;;;;;2.97;1.35;;;23.20;83.10;;;24.15;50.17;101474.97;5209454;28;20052;-83
2022/07/04 06:27:29;;;;;;;4.18;1.23;;;23.30;83.60;;;24.28;49.70;101471.28;5179195;28;20046;-81
2022/07/04 06:30:01;;;;;;;3.45;1.00;;;23.40;82.70;;;24.44;49.18;101478.19;5174367;28;20046;-82
2022/07/04 06:32:43;;;;;;;5.30;1.35;;;23.60;81.50;;;24.54;47.62;101479.88;5191909;28;20056;-82
2022/07/04 06:38:11;;;;;;;3.10;1.20;;;23.80;78.70;;;24.80;48.01;101490.22;5172957;28;20046;-83
2022/07/04 06:40:43;;;;;;;2.35;1.15;;;23.90;79.20;;;24.97;47.46;101489.09;5190115;28;20049;-82
2022/07/04 06:43:17;;;;;;;3.25;1.33;;;24.10;78.40;;;25.10;47.04;101494.28;5173676;28;20132;-82
2022/07/04 06:45:49;;;;;;;4.80;1.50;;;24.20;77.50;;;25.13;46.60;101493.34;5173150;28;20056;-84
2022/07/04 06:48:21;;;;;;;3.15;1.30;;;24.30;76.80;;;25.26;45.82;101491.38;5172301;28;20045;-82
2022/07/04 06:50:53;;;;;;;2.67;1.30;;;24.40;75.80;;;25.36;45.04;101487.66;5172576;28;20077;-83
2022/07/04 06:53:25;;;;;;;3.55;1.10;;;24.50;73.90;;;25.47;44.78;101496.38;5189251;28;20046;-84
2022/07/04 06:55:57;;;;;;;3.95;1.00;;;24.50;73.40;;;25.57;43.48;101490.00;5189985;28;20048;-84
2022/07/04 06:58:31;;;;;;;3.47;1.05;;;24.60;71.80;;;25.69;43.50;101486.22;5172536;28;20050;-82
2022/07/04 07:01:03;;;;;;;3.17;1.30;;;24.70;71.00;;;25.84;43.24;101474.47;5191197;28;20495;-83
2022/07/04 07:03:35;;;;;;;5.32;1.35;;;24.90;70.60;;;25.80;42.57;101473.63;5172526;28;20045;-83
2022/07/04 07:06:07;;;;;;;3.40;1.00;;;24.90;69.40;;;25.91;42.40;101470.78;5189810;28;20049;-83
2022/07/04 07:08:39;;;;;;;3.92;0.90;;;24.90;69.30;;;26.03;42.51;101459.88;5173136;28;20547;-81
2022/07/04 07:11:17;;;;;;;2.28;1.02;;;25.10;69.00;;;26.22;42.27;101455.06;5190361;28;20045;-82
2022/07/04 07:13:51;;;;;;;4.03;1.20;;;25.20;68.60;;;26.42;41.94;101454.69;5173685;28;20496;-82
2022/07/04 07:16:25;;;;;;;1.45;0.90;;;25.40;68.10;;;26.51;41.57;101451.81;5172996;28;20120;-83
2022/07/04 07:18:57;;;;;;;1.83;0.90;;;25.50;67.50;;;26.64;41.04;101450.66;5173259;28;20112;-82
2022/07/04 07:21:29;;;;;;;2.25;0.98;;;25.70;66.60;;;26.69;40.68;101446.09;5172840;28;20052;-82
2022/07/04 07:24:03;;;;;;;1.80;1.00;;;25.70;65.80;;;26.61;40.51;101449.84;5173302;28;20058;-82
2022/07/04 07:26:36;;;;;;;2.35;0.90;;;25.70;65.40;;;26.66;40.35;101446.13;5173116;28;20046;-83
2022/07/04 07:29:09;;;;;;;2.42;1.00;;;25.70;65.00;;;26.85;39.33;101456.44;5172866;28;20100;-83
2022/07/04 07:31:41;;;;;;;2.35;1.02;;;25.80;63.90;;;26.97;39.31;101451.69;5171446;28;20050;-78
2022/07/04 07:34:14;;;;;;;3.70;0.65;;;26.00;63.80;;;27.08;39.63;101440.78;5187905;28;20091;-79
2022/07/04 07:36:46;;;;;;;1.35;0.70;;;26.00;63.90;;;27.18;38.94;101439.63;5187432;28;20458;-80
2022/07/04 07:39:18;;;;;;;1.60;0.60;;;26.10;63.10;;;27.19;38.57;101441.41;5171190;28;20049;-80
2022/07/04 07:41:50;;;;;;;1.05;0.60;;;26.20;62.80;;;27.24;38.88;101441.28;5163692;28;20061;-78
2022/07/04 07:44:23;;;;;;;1.05;0.70;;;26.20;62.70;;;27.21;38.30;101441.38;5191646;28;20042;-77
2022/07/04 07:46:56;;;;;;;1.15;0.63;;;26.20;62.10;;;26.94;38.17;101426.81;5170482;28;20109;-78
2022/07/04 07:49:27;;;;;;;1.67;0.50;;;26.00;61.20;;;26.80;38.84;101440.50;5186723;28;20511;-78
2022/07/04 07:52:00;;;;;;;0.93;0.40;;;25.80;62.10;;;26.78;38.29;101440.53;5207663;28;20451;-78
2022/07/04 07:54:32;;;;;;;0.43;0.43;;;25.70;61.80;;;26.78;38.38;101451.22;5182215;28;20073;-84
2022/07/04 07:57:05;;;;;;;1.27;0.52;;;25.60;61.60;;;26.89;38.26;101463.50;5176467;28;20066;-85
2022/07/04 07:59:38;;;;;;;0.80;0.47;;;25.60;61.50;;;27.07;37.93;101449.72;5185608;28;20057;-85
2022/07/04 08:02:10;;;;;;;1.05;0.60;;;25.70;61.40;;;27.22;37.34;101454.72;5179078;28;20046;-86
2022/07/04 08:04:41;;;;;;;0.50;0.50;;;25.70;61.00;;;27.31;36.88;101456.28;5172757;28;20045;-86
2022/07/04 08:07:13;;;;;;;0.40;0.40;;;25.70;60.40;;;27.64;36.38;101454.56;5190577;28;20435;-81
2022/07/04 08:09:46;;;;;;;1.55;0.60;;;25.90;60.30;;;27.99;36.28;101453.69;5173012;28;20108;-84
2022/07/04 08:12:18;;;;;;;3.20;0.70;;;26.10;60.40;;;28.41;35.94;101457.91;5173376;28;20046;-84
2022/07/04 08:14:51;;;;;;;1.52;0.63;;;26.20;60.50;;;28.91;35.92;101469.81;5174066;28;20042;-86
2022/07/04 08:17:30;;;;;;;1.60;0.60;;;26.50;60.60;;;29.43;35.33;101469.06;5171980;28;20459;-86
2022/07/04 08:20:03;;;;;;;1.30;0.60;;;26.80;60.60;;;30.00;33.91;101459.13;5171924;28;20237;-86
2022/07/04 08:22:35;;;;;;;1.05;0.50;;;27.10;59.30;;;30.45;32.98;101461.97;5171507;28;20122;-86
2022/07/04 08:25:07;;;;;;;1.50;0.63;;;27.30;58.30;;;30.95;31.85;101464.53;5170476;28;20060;-87
2022/07/04 08:27:39;;;;;;;2.72;0.60;;;27.50;57.50;;;31.55;31.11;101465.69;5170425;28;20046;-86
2022/07/04 08:30:13;;;;;;;0.60;0.40;;;27.70;56.90;;;32.27;30.04;101464.41;5178863;28;20053;-86
2022/07/04 08:32:45;;;;;;;;;;;28.00;56.20;;;32.73;28.71;101460.47;5206183;28;20056;-87
2022/07/04 08:35:17;;;;;;;2.38;0.60;;;28.30;54.70;;;33.63;28.15;101466.03;5193006;28;19927;-85
2022/07/04 08:37:53;;;;;;;2.13;0.60;;;28.70;55.40;;;34.58;26.89;101469.19;5191013;28;20411;-84
2022/07/04 08:40:26;;;;;;;1.35;0.38;;;29.30;53.90;;;35.63;25.84;101471.28;5191848;28;20128;-86
2022/07/04 08:42:59;;;;;;;0.98;0.38;;;30.00;52.40;;;36.42;24.12;101466.44;5209802;28;20033;-85
2022/07/04 08:45:34;;;;;;;1.00;0.40;;;30.80;50.50;;;37.24;23.58;101475.66;5187514;28;20054;-85
2022/07/04 08:48:09;;;;;;;0.93;0.40;;;31.70;49.50;;;37.97;23.12;101467.13;5165613;28;20054;-85
2022/07/04 08:50:50;;;;;;;0.60;0.30;;;32.50;48.70;;;38.66;22.32;101468.50;5179089;28;20038;-87
2022/07/04 08:53:24;;;;;;;0.88;0.40;;;33.30;47.10;;;39.18;21.43;101477.47;5180830;28;20046;-85
2022/07/04 08:58:48;;;;;;;0.75;0.30;;;34.10;44.30;;;38.91;21.12;101472.19;5182448;28;20065;-84
2022/07/04 09:01:22;;;;;;;1.67;0.52;;;34.00;44.50;;;39.11;20.96;101477.03;5171418;28;20050;-81
2022/07/04 09:03:55;;;;;;;1.38;0.40;;;34.20;44.10;;;39.47;20.32;101473.41;5184530;28;20053;-86
2022/07/04 09:06:29;;;;;;;0.52;0.40;;;34.40;43.30;;;39.56;19.76;101475.44;5197173;28;20057;-83
2022/07/04 09:09:01;;;;;;;1.05;0.40;;;34.60;42.70;;;39.35;20.13;101471.63;5206891;28;20068;-83
2022/07/04 09:11:34;;;;;;;0.82;0.60;;;34.50;42.40;;;39.66;19.98;101474.78;5184233;28;20102;-85
2022/07/04 09:14:07;;;;;;;;;;;34.60;42.80;;;39.81;19.82;101477.16;5176371;28;20073;-83
2022/07/04 09:16:41;;;;;;;1.90;0.47;;;34.80;42.50;;;39.91;19.86;101469.13;5191194;28;19936;-86
2022/07/04 09:19:20;;;;;;;1.60;0.50;;;35.00;42.50;;;39.69;20.92;101474.50;5177368;28;20528;-80
2022/07/04 09:21:53;;;;;;;0.90;0.60;;;35.00;43.50;;;39.48;20.92;101475.16;5193674;28;20515;-82
2022/07/04 09:24:47;;;;;;;0.85;0.28;;;34.80;43.30;;;38.63;21.14;101462.44;5194062;28;20412;-85
2022/07/04 09:27:33;;;;;;;1.63;0.43;;;34.50;43.10;;;37.89;20.72;101467.66;5193433;28;20505;-85
2022/07/04 09:30:07;;;;;;;1.90;0.55;;;34.00;42.20;;;37.40;21.21;101462.81;5195140;28;20049;-85
2022/07/04 09:32:43;;;;;;;1.20;0.60;;;33.60;42.50;;;36.69;21.90;101454.78;5197115;28;20038;-86
2022/07/04 09:35:20;;;;;;;2.20;0.50;;;33.30;43.40;;;36.04;22.60;101444.38;5196962;28;20049;-87
2022/07/04 09:37:54;;;;;;;1.42;0.47;;;33.10;42.80;;;35.26;22.88;101448.16;5209589;28;20017;-87
2022/07/04 09:40:29;;;;;;;0.77;0.40;;;32.80;42.90;;;34.43;24.01;101433.88;5172985;28;20476;-83
2022/07/04 09:43:12;;;;;;;1.88;0.45;;;32.40;43.60;;;33.51;25.58;101443.19;5146983;28;20420;-83
2022/07/04 09:45:55;;;;;;;3.15;0.50;;;31.90;44.70;;;32.42;26.96;101435.91;5214394;28;20049;-84
2022/07/04 09:48:49;;;;;;;1.08;0.40;;;31.20;45.90;;;31.63;27.52;101438.44;5182187;28;20140;-86
2022/07/04 09:51:41;;;;;;;1.08;0.68;;;30.50;46.00;;;31.17;28.29;101431.34;5187748;28;20041;-83
2022/07/04 09:54:26;;;;;;;2.20;0.95;;;30.10;46.80;;;30.89;29.34;101431.59;5194605;28;20072;-86
2022/07/04 09:57:01;;;;;;;2.03;0.70;;;29.80;47.60;;;30.65;29.39;101430.75;5175334;28;20049;-84
2022/07/04 09:59:34;;;;;;;2.30;0.63;;;29.50;47.80;;;30.45;29.77;101424.31;5177069;28;20042;-85
2022/07/04 10:02:13;;;;;;;0.98;0.52;;;29.30;48.00;;;30.21;29.99;101420.72;5175412;28;20050;-85
2022/07/04 10:04:51;;;;;;;0.95;0.40;;;29.10;48.30;;;30.03;29.99;101426.72;5176314;28;20511;-85
2022/07/04 10:07:36;;;;;;;0.93;0.30;;;29.00;48.40;;;29.91;30.75;101422.66;5176496;28;20050;-85
2022/07/04 10:10:32;;;;;;;0.85;0.40;;;28.80;49.00;;;29.89;31.04;101418.28;5198999;28;20050;-83
2022/07/04 10:13:07;;;;;;;0.77;0.30;;;28.80;49.50;;;29.83;31.20;101413.13;5189651;28;20069;-84
2022/07/04 10:15:43;;;;;;;1.73;0.50;;;28.70;49.40;;;29.83;30.98;101408.63;5188089;28;20092;-85
2022/07/04 10:18:18;;;;;;;1.23;0.45;;;28.70;49.50;;;29.86;30.77;101413.88;5190972;28;20046;-84
2022/07/04 10:20:55;;;;;;;1.27;0.47;;;28.70;49.20;;;29.81;30.71;101402.44;5195542;28;20042;-85
2022/07/04 10:23:31;;;;;;;1.10;0.30;;;28.70;49.20;;;29.79;30.67;101404.28;5184731;28;20046;-85
2022/07/04 10:26:03;;;;;;;0.85;0.40;;;28.70;49.10;;;29.79;30.42;101406.97;5174576;28;20049;-86
2022/07/04 10:28:38;;;;;;;0.85;0.50;;;28.70;49.00;;;29.68;30.32;101404.69;5182016;28;20037;-85
2022/07/04 10:31:12;;;;;;;1.08;0.38;;;28.60;48.50;;;29.62;30.34;101398.66;5173768;28;20049;-86
2022/07/04 10:33:46;;;;;;;1.70;0.40;;;28.50;48.70;;;29.51;30.42;101393.66;5190368;28;20046;-85
2022/07/04 10:36:22;;;;;;;1.65;0.30;;;28.50;48.70;;;29.51;30.61;101395.41;5189952;28;20137;-85
2022/07/04 10:38:56;;;;;;;3.22;0.68;;;28.40;49.10;;;29.56;30.64;101393.50;5173803;28;20493;-88
2022/07/04 10:41:29;;;;;;;;;;;28.50;48.80;;;29.57;30.83;101392.56;5175215;28;20060;-85
2022/07/04 10:44:06;;;;;;;0.32;0.32;;;28.50;48.90;;;29.64;30.82;101388.72;5191182;28;20036;-89
2022/07/04 10:46:47;;;;;;;1.20;0.40;;;28.60;49.20;;;29.70;30.99;101391.19;5173835;28;20507;-85
2022/07/04 10:49:28;;;;;;;0.82;0.43;;;28.60;49.30;;;29.73;31.00;101391.97;5174189;28;20056;-89